sensor_id;sensor_type;location;lat;lon;timestamp;P1;durP1;ratioP1;P2;durP2;ratioP2
9424;SDS011;17139;52.140;11.636;2022-12-07T00:01:15;5.17;;;4.67;;
9424;SDS011;17139;52.140;11.636;2022-12-07T00:03:44;6.73;;;5.20;;
9424;SDS011;17139;52.140;11.636;2022-12-07T00:06:13;6.87;;;5.13;;
9424;SDS011;17139;52.140;11.636;2022-12-07T00:08:42;6.50;;;4.47;;
9424;SDS011;17139;52.140;11.636;2022-12-07T00:11:11;10.23;;;8.38;;
9424;SDS011;17139;52.140;11.636;2022-12-07T00:13:41;11.07;;;5.90;;
9424;SDS011;17139;52.140;11.636;2022-12-07T00:16:09;4.83;;;4.53;;
9424;SDS011;17139;52.140;11.636;2022-12-07T00:18:38;5.37;;;4.97;;
9424;SDS011;17139;52.140;11.636;2022-12-07T00:21:09;5.53;;;5.00;;
9424;SDS011;17139;52.140;11.636;2022-12-07T00:23:38;5.83;;;5.20;;
9424;SDS011;17139;52.140;11.636;2022-12-07T00:26:06;5.43;;;4.80;;
9424;SDS011;17139;52.140;11.636;2022-12-07T00:28:35;5.87;;;5.37;;
9424;SDS011;17139;52.140;11.636;2022-12-07T00:31:03;6.50;;;4.03;;
9424;SDS011;17139;52.140;11.636;2022-12-07T00:33:32;5.33;;;4.93;;
9424;SDS011;17139;52.140;11.636;2022-12-07T00:36:00;5.67;;;5.27;;
9424;SDS011;17139;52.140;11.636;2022-12-07T00:38:29;4.87;;;4.53;;
9424;SDS011;17139;52.140;11.636;2022-12-07T00:40:58;5.97;;;5.47;;
9424;SDS011;17139;52.140;11.636;2022-12-07T00:43:26;10.43;;;5.73;;
9424;SDS011;17139;52.140;11.636;2022-12-07T00:45:55;13.32;;;10.27;;
9424;SDS011;17139;52.140;11.636;2022-12-07T00:48:22;6.00;;;5.53;;
9424;SDS011;17139;52.140;11.636;2022-12-07T00:50:50;8.03;;;5.37;;
9424;SDS011;17139;52.140;11.636;2022-12-07T00:53:17;7.10;;;5.73;;
9424;SDS011;17139;52.140;11.636;2022-12-07T00:55:44;6.47;;;5.87;;
9424;SDS011;17139;52.140;11.636;2022-12-07T00:58:13;6.37;;;5.03;;
9424;SDS011;17139;52.140;11.636;2022-12-07T01:00:41;5.47;;;5.00;;
9424;SDS011;17139;52.140;11.636;2022-12-07T01:03:11;5.13;;;4.77;;
9424;SDS011;17139;52.140;11.636;2022-12-07T01:05:39;4.87;;;4.50;;
9424;SDS011;17139;52.140;11.636;2022-12-07T01:08:14;4.73;;;4.43;;
9424;SDS011;17139;52.140;11.636;2022-12-07T01:10:41;7.43;;;4.87;;
9424;SDS011;17139;52.140;11.636;2022-12-07T01:13:08;6.97;;;5.03;;
9424;SDS011;17139;52.140;11.636;2022-12-07T01:15:38;5.10;;;4.73;;
9424;SDS011;17139;52.140;11.636;2022-12-07T01:18:05;6.43;;;5.83;;
9424;SDS011;17139;52.140;11.636;2022-12-07T01:20:34;5.27;;;4.87;;
9424;SDS011;17139;52.140;11.636;2022-12-07T01:23:01;11.20;;;8.88;;
9424;SDS011;17139;52.140;11.636;2022-12-07T01:25:28;5.83;;;5.37;;
9424;SDS011;17139;52.140;11.636;2022-12-07T01:27:56;5.50;;;4.33;;
9424;SDS011;17139;52.140;11.636;2022-12-07T01:30:23;5.23;;;4.77;;
9424;SDS011;17139;52.140;11.636;2022-12-07T01:32:50;5.30;;;4.93;;
9424;SDS011;17139;52.140;11.636;2022-12-07T01:35:17;4.83;;;4.50;;
9424;SDS011;17139;52.140;11.636;2022-12-07T01:37:45;4.83;;;4.50;;
9424;SDS011;17139;52.140;11.636;2022-12-07T01:40:12;5.13;;;4.77;;
9424;SDS011;17139;52.140;11.636;2022-12-07T01:42:39;5.40;;;4.90;;
9424;SDS011;17139;52.140;11.636;2022-12-07T01:48:10;3.93;;;3.63;;
9424;SDS011;17139;52.140;11.636;2022-12-07T01:50:39;4.77;;;4.37;;
9424;SDS011;17139;52.140;11.636;2022-12-07T01:53:09;4.80;;;4.53;;
9424;SDS011;17139;52.140;11.636;2022-12-07T01:55:38;7.00;;;6.45;;
9424;SDS011;17139;52.140;11.636;2022-12-07T01:58:09;5.43;;;5.03;;
9424;SDS011;17139;52.140;11.636;2022-12-07T02:00:38;11.02;;;10.02;;
9424;SDS011;17139;52.140;11.636;2022-12-07T02:03:08;5.93;;;5.53;;
9424;SDS011;17139;52.140;11.636;2022-12-07T02:05:40;4.87;;;4.47;;
9424;SDS011;17139;52.140;11.636;2022-12-07T02:08:10;5.57;;;5.17;;
9424;SDS011;17139;52.140;11.636;2022-12-07T02:10:39;4.87;;;4.53;;
9424;SDS011;17139;52.140;11.636;2022-12-07T02:13:08;5.60;;;5.10;;
9424;SDS011;17139;52.140;11.636;2022-12-07T02:15:41;7.83;;;4.57;;
9424;SDS011;17139;52.140;11.636;2022-12-07T02:18:31;5.47;;;4.97;;
9424;SDS011;17139;52.140;11.636;2022-12-07T02:21:12;4.87;;;4.57;;
9424;SDS011;17139;52.140;11.636;2022-12-07T02:23:50;4.63;;;4.33;;
9424;SDS011;17139;52.140;11.636;2022-12-07T02:26:43;4.70;;;4.40;;
9424;SDS011;17139;52.140;11.636;2022-12-07T02:29:24;4.87;;;4.50;;
9424;SDS011;17139;52.140;11.636;2022-12-07T02:31:55;9.43;;;8.57;;
9424;SDS011;17139;52.140;11.636;2022-12-07T02:34:32;6.20;;;5.80;;
9424;SDS011;17139;52.140;11.636;2022-12-07T02:37:08;5.27;;;4.90;;
9424;SDS011;17139;52.140;11.636;2022-12-07T02:39:42;11.30;;;10.20;;
9424;SDS011;17139;52.140;11.636;2022-12-07T02:42:15;6.73;;;6.13;;
9424;SDS011;17139;52.140;11.636;2022-12-07T02:44:48;5.37;;;5.07;;
9424;SDS011;17139;52.140;11.636;2022-12-07T02:47:15;5.83;;;5.43;;
9424;SDS011;17139;52.140;11.636;2022-12-07T02:49:43;6.37;;;5.80;;
9424;SDS011;17139;52.140;11.636;2022-12-07T02:52:11;5.77;;;5.33;;
9424;SDS011;17139;52.140;11.636;2022-12-07T02:54:38;6.30;;;5.70;;
9424;SDS011;17139;52.140;11.636;2022-12-07T02:57:14;5.97;;;5.40;;
9424;SDS011;17139;52.140;11.636;2022-12-07T02:59:58;5.60;;;5.17;;
9424;SDS011;17139;52.140;11.636;2022-12-07T03:02:34;9.87;;;5.43;;
9424;SDS011;17139;52.140;11.636;2022-12-07T03:05:17;4.20;;;3.97;;
9424;SDS011;17139;52.140;11.636;2022-12-07T03:07:57;7.13;;;5.33;;
9424;SDS011;17139;52.140;11.636;2022-12-07T03:10:31;6.13;;;5.73;;
9424;SDS011;17139;52.140;11.636;2022-12-07T03:13:07;8.07;;;7.43;;
9424;SDS011;17139;52.140;11.636;2022-12-07T03:15:41;6.43;;;6.00;;
9424;SDS011;17139;52.140;11.636;2022-12-07T03:18:13;12.07;;;10.98;;
9424;SDS011;17139;52.140;11.636;2022-12-07T03:20:44;6.03;;;5.63;;
9424;SDS011;17139;52.140;11.636;2022-12-07T03:23:14;6.27;;;5.13;;
9424;SDS011;17139;52.140;11.636;2022-12-07T03:25:45;5.60;;;5.17;;
9424;SDS011;17139;52.140;11.636;2022-12-07T03:28:16;5.17;;;4.77;;
9424;SDS011;17139;52.140;11.636;2022-12-07T03:30:49;7.60;;;5.63;;
9424;SDS011;17139;52.140;11.636;2022-12-07T03:33:20;5.77;;;5.40;;
9424;SDS011;17139;52.140;11.636;2022-12-07T03:35:51;5.77;;;5.23;;
9424;SDS011;17139;52.140;11.636;2022-12-07T03:38:27;5.73;;;5.27;;
9424;SDS011;17139;52.140;11.636;2022-12-07T03:41:00;4.73;;;4.40;;
9424;SDS011;17139;52.140;11.636;2022-12-07T03:43:31;4.57;;;4.17;;
9424;SDS011;17139;52.140;11.636;2022-12-07T03:46:01;4.70;;;4.30;;
9424;SDS011;17139;52.140;11.636;2022-12-07T03:48:43;5.77;;;5.17;;
9424;SDS011;17139;52.140;11.636;2022-12-07T03:51:21;10.50;;;9.43;;
9424;SDS011;17139;52.140;11.636;2022-12-07T03:53:53;9.40;;;6.23;;
9424;SDS011;17139;52.140;11.636;2022-12-07T03:56:24;5.10;;;4.83;;
9424;SDS011;17139;52.140;11.636;2022-12-07T03:58:53;5.10;;;4.73;;
9424;SDS011;17139;52.140;11.636;2022-12-07T04:01:23;4.73;;;4.43;;
9424;SDS011;17139;52.140;11.636;2022-12-07T04:03:51;5.27;;;4.87;;
9424;SDS011;17139;52.140;11.636;2022-12-07T04:06:18;5.53;;;5.13;;
9424;SDS011;17139;52.140;11.636;2022-12-07T04:08:45;6.07;;;5.47;;
9424;SDS011;17139;52.140;11.636;2022-12-07T04:11:12;5.10;;;4.70;;
9424;SDS011;17139;52.140;11.636;2022-12-07T04:13:39;5.00;;;4.70;;
9424;SDS011;17139;52.140;11.636;2022-12-07T04:16:25;4.87;;;4.53;;
9424;SDS011;17139;52.140;11.636;2022-12-07T04:18:52;5.17;;;4.73;;
9424;SDS011;17139;52.140;11.636;2022-12-07T04:21:19;5.20;;;4.70;;
9424;SDS011;17139;52.140;11.636;2022-12-07T04:23:46;9.13;;;7.63;;
9424;SDS011;17139;52.140;11.636;2022-12-07T04:26:13;11.55;;;10.13;;
9424;SDS011;17139;52.140;11.636;2022-12-07T04:28:40;7.30;;;6.67;;
9424;SDS011;17139;52.140;11.636;2022-12-07T04:31:07;5.90;;;5.23;;
9424;SDS011;17139;52.140;11.636;2022-12-07T04:33:36;6.63;;;6.13;;
9424;SDS011;17139;52.140;11.636;2022-12-07T04:36:04;5.90;;;4.10;;
9424;SDS011;17139;52.140;11.636;2022-12-07T04:38:31;5.53;;;5.13;;
9424;SDS011;17139;52.140;11.636;2022-12-07T04:41:02;5.00;;;4.63;;
9424;SDS011;17139;52.140;11.636;2022-12-07T04:43:31;4.47;;;4.27;;
9424;SDS011;17139;52.140;11.636;2022-12-07T04:45:58;5.87;;;5.30;;
9424;SDS011;17139;52.140;11.636;2022-12-07T04:48:25;4.90;;;4.33;;
9424;SDS011;17139;52.140;11.636;2022-12-07T04:50:54;3.63;;;3.43;;
9424;SDS011;17139;52.140;11.636;2022-12-07T04:53:21;5.30;;;4.97;;
9424;SDS011;17139;52.140;11.636;2022-12-07T04:55:48;4.27;;;3.83;;
9424;SDS011;17139;52.140;11.636;2022-12-07T04:58:15;5.37;;;4.90;;
9424;SDS011;17139;52.140;11.636;2022-12-07T05:00:42;5.27;;;4.97;;
9424;SDS011;17139;52.140;11.636;2022-12-07T05:03:09;4.10;;;3.73;;
9424;SDS011;17139;52.140;11.636;2022-12-07T05:05:39;7.13;;;6.53;;
9424;SDS011;17139;52.140;11.636;2022-12-07T05:08:08;4.97;;;4.67;;
9424;SDS011;17139;52.140;11.636;2022-12-07T05:10:35;4.93;;;4.63;;
9424;SDS011;17139;52.140;11.636;2022-12-07T05:13:02;6.50;;;5.90;;
9424;SDS011;17139;52.140;11.636;2022-12-07T05:15:29;5.40;;;5.10;;
9424;SDS011;17139;52.140;11.636;2022-12-07T05:17:56;5.27;;;4.77;;
9424;SDS011;17139;52.140;11.636;2022-12-07T05:20:23;5.70;;;5.17;;
9424;SDS011;17139;52.140;11.636;2022-12-07T05:22:50;5.83;;;5.33;;
9424;SDS011;17139;52.140;11.636;2022-12-07T05:25:18;5.17;;;4.57;;
9424;SDS011;17139;52.140;11.636;2022-12-07T05:27:45;5.70;;;5.30;;
9424;SDS011;17139;52.140;11.636;2022-12-07T05:30:13;5.07;;;4.67;;
9424;SDS011;17139;52.140;11.636;2022-12-07T05:32:40;4.70;;;4.40;;
9424;SDS011;17139;52.140;11.636;2022-12-07T05:35:08;8.50;;;7.95;;
9424;SDS011;17139;52.140;11.636;2022-12-07T05:37:35;5.47;;;4.97;;
9424;SDS011;17139;52.140;11.636;2022-12-07T05:40:03;8.80;;;8.07;;
9424;SDS011;17139;52.140;11.636;2022-12-07T05:42:32;6.43;;;5.93;;
9424;SDS011;17139;52.140;11.636;2022-12-07T05:44:59;10.57;;;5.30;;
9424;SDS011;17139;52.140;11.636;2022-12-07T05:47:26;12.40;;;11.13;;
9424;SDS011;17139;52.140;11.636;2022-12-07T05:49:53;8.83;;;6.93;;
9424;SDS011;17139;52.140;11.636;2022-12-07T05:52:20;6.07;;;5.70;;
9424;SDS011;17139;52.140;11.636;2022-12-07T05:54:47;2.23;;;2.13;;
9424;SDS011;17139;52.140;11.636;2022-12-07T05:57:14;6.30;;;3.97;;
9424;SDS011;17139;52.140;11.636;2022-12-07T05:59:43;5.20;;;4.80;;
9424;SDS011;17139;52.140;11.636;2022-12-07T06:02:09;3.03;;;2.83;;
9424;SDS011;17139;52.140;11.636;2022-12-07T06:04:38;4.17;;;3.87;;
9424;SDS011;17139;52.140;11.636;2022-12-07T06:07:07;5.70;;;5.23;;
9424;SDS011;17139;52.140;11.636;2022-12-07T06:09:34;8.82;;;8.07;;
9424;SDS011;17139;52.140;11.636;2022-12-07T06:12:02;5.17;;;4.77;;
9424;SDS011;17139;52.140;11.636;2022-12-07T06:14:49;4.57;;;4.10;;
9424;SDS011;17139;52.140;11.636;2022-12-07T06:17:16;5.63;;;5.20;;
9424;SDS011;17139;52.140;11.636;2022-12-07T06:19:43;6.00;;;5.50;;
9424;SDS011;17139;52.140;11.636;2022-12-07T06:22:10;9.43;;;3.73;;
9424;SDS011;17139;52.140;11.636;2022-12-07T06:24:38;5.97;;;5.27;;
9424;SDS011;17139;52.140;11.636;2022-12-07T06:27:06;3.87;;;3.67;;
9424;SDS011;17139;52.140;11.636;2022-12-07T06:29:33;5.03;;;4.53;;
9424;SDS011;17139;52.140;11.636;2022-12-07T06:32:01;4.97;;;4.67;;
9424;SDS011;17139;52.140;11.636;2022-12-07T06:34:28;4.13;;;3.93;;
9424;SDS011;17139;52.140;11.636;2022-12-07T06:36:55;3.57;;;3.47;;
9424;SDS011;17139;52.140;11.636;2022-12-07T06:39:23;3.97;;;3.77;;
9424;SDS011;17139;52.140;11.636;2022-12-07T06:41:52;7.40;;;6.57;;
9424;SDS011;17139;52.140;11.636;2022-12-07T06:44:20;6.17;;;4.37;;
9424;SDS011;17139;52.140;11.636;2022-12-07T06:46:47;3.83;;;3.53;;
9424;SDS011;17139;52.140;11.636;2022-12-07T06:49:16;4.73;;;3.13;;
9424;SDS011;17139;52.140;11.636;2022-12-07T06:51:43;3.37;;;3.17;;
9424;SDS011;17139;52.140;11.636;2022-12-07T06:54:11;2.30;;;2.20;;
9424;SDS011;17139;52.140;11.636;2022-12-07T06:56:38;2.80;;;2.70;;
9424;SDS011;17139;52.140;11.636;2022-12-07T06:59:06;4.13;;;3.47;;
9424;SDS011;17139;52.140;11.636;2022-12-07T07:01:36;3.33;;;3.13;;
9424;SDS011;17139;52.140;11.636;2022-12-07T07:04:03;3.43;;;3.13;;
9424;SDS011;17139;52.140;11.636;2022-12-07T07:06:31;3.60;;;3.42;;
9424;SDS011;17139;52.140;11.636;2022-12-07T07:08:59;3.60;;;3.40;;
9424;SDS011;17139;52.140;11.636;2022-12-07T07:11:26;3.63;;;3.43;;
9424;SDS011;17139;52.140;11.636;2022-12-07T07:13:53;5.85;;;5.28;;
9424;SDS011;17139;52.140;11.636;2022-12-07T07:16:22;3.63;;;3.43;;
9424;SDS011;17139;52.140;11.636;2022-12-07T07:18:50;2.73;;;2.63;;
9424;SDS011;17139;52.140;11.636;2022-12-07T07:21:17;2.67;;;2.47;;
9424;SDS011;17139;52.140;11.636;2022-12-07T07:23:45;2.63;;;2.53;;
9424;SDS011;17139;52.140;11.636;2022-12-07T07:26:12;2.73;;;2.63;;
9424;SDS011;17139;52.140;11.636;2022-12-07T07:28:39;2.60;;;2.50;;
9424;SDS011;17139;52.140;11.636;2022-12-07T07:31:06;2.83;;;2.47;;
9424;SDS011;17139;52.140;11.636;2022-12-07T07:33:33;3.00;;;2.80;;
9424;SDS011;17139;52.140;11.636;2022-12-07T07:36:00;2.17;;;2.07;;
9424;SDS011;17139;52.140;11.636;2022-12-07T07:38:27;1.53;;;1.50;;
9424;SDS011;17139;52.140;11.636;2022-12-07T07:40:56;3.03;;;2.93;;
9424;SDS011;17139;52.140;11.636;2022-12-07T07:43:23;4.72;;;4.40;;
9424;SDS011;17139;52.140;11.636;2022-12-07T07:45:50;4.70;;;4.30;;
9424;SDS011;17139;52.140;11.636;2022-12-07T07:48:17;3.20;;;3.00;;
9424;SDS011;17139;52.140;11.636;2022-12-07T07:50:44;4.40;;;4.15;;
9424;SDS011;17139;52.140;11.636;2022-12-07T07:53:11;2.83;;;2.63;;
9424;SDS011;17139;52.140;11.636;2022-12-07T07:55:38;3.77;;;3.37;;
9424;SDS011;17139;52.140;11.636;2022-12-07T07:58:06;3.40;;;2.67;;
9424;SDS011;17139;52.140;11.636;2022-12-07T08:00:33;3.47;;;3.37;;
9424;SDS011;17139;52.140;11.636;2022-12-07T08:03:00;2.37;;;2.27;;
9424;SDS011;17139;52.140;11.636;2022-12-07T08:05:27;4.78;;;4.45;;
9424;SDS011;17139;52.140;11.636;2022-12-07T08:07:54;6.40;;;3.53;;
9424;SDS011;17139;52.140;11.636;2022-12-07T08:10:23;2.60;;;2.50;;
9424;SDS011;17139;52.140;11.636;2022-12-07T08:12:50;3.27;;;3.07;;
9424;SDS011;17139;52.140;11.636;2022-12-07T08:15:36;7.00;;;2.47;;
9424;SDS011;17139;52.140;11.636;2022-12-07T08:18:05;2.60;;;2.17;;
9424;SDS011;17139;52.140;11.636;2022-12-07T08:20:33;4.33;;;2.83;;
9424;SDS011;17139;52.140;11.636;2022-12-07T08:23:01;3.30;;;3.10;;
9424;SDS011;17139;52.140;11.636;2022-12-07T08:25:28;3.30;;;2.63;;
9424;SDS011;17139;52.140;11.636;2022-12-07T08:27:56;2.47;;;2.27;;
9424;SDS011;17139;52.140;11.636;2022-12-07T08:30:23;3.00;;;2.83;;
9424;SDS011;17139;52.140;11.636;2022-12-07T08:32:51;5.43;;;5.10;;
9424;SDS011;17139;52.140;11.636;2022-12-07T08:35:19;3.93;;;3.67;;
9424;SDS011;17139;52.140;11.636;2022-12-07T08:37:46;2.97;;;2.77;;
9424;SDS011;17139;52.140;11.636;2022-12-07T08:40:13;2.90;;;2.80;;
9424;SDS011;17139;52.140;11.636;2022-12-07T08:42:41;7.30;;;3.73;;
9424;SDS011;17139;52.140;11.636;2022-12-07T08:45:10;2.13;;;2.03;;
9424;SDS011;17139;52.140;11.636;2022-12-07T08:47:40;3.77;;;3.47;;
9424;SDS011;17139;52.140;11.636;2022-12-07T08:50:12;3.10;;;3.00;;
9424;SDS011;17139;52.140;11.636;2022-12-07T08:52:40;3.07;;;2.87;;
9424;SDS011;17139;52.140;11.636;2022-12-07T08:55:09;5.43;;;5.03;;
9424;SDS011;17139;52.140;11.636;2022-12-07T08:57:37;4.97;;;4.35;;
9424;SDS011;17139;52.140;11.636;2022-12-07T09:00:05;2.83;;;2.63;;
9424;SDS011;17139;52.140;11.636;2022-12-07T09:02:34;2.50;;;2.40;;
9424;SDS011;17139;52.140;11.636;2022-12-07T09:05:01;3.33;;;2.00;;
9424;SDS011;17139;52.140;11.636;2022-12-07T09:07:30;1.27;;;1.27;;
9424;SDS011;17139;52.140;11.636;2022-12-07T09:09:59;1.73;;;1.73;;
9424;SDS011;17139;52.140;11.636;2022-12-07T09:12:27;1.37;;;1.37;;
9424;SDS011;17139;52.140;11.636;2022-12-07T09:14:54;2.47;;;2.38;;
9424;SDS011;17139;52.140;11.636;2022-12-07T09:17:21;2.60;;;2.13;;
9424;SDS011;17139;52.140;11.636;2022-12-07T09:19:48;1.97;;;1.77;;
9424;SDS011;17139;52.140;11.636;2022-12-07T09:22:15;1.50;;;1.50;;
9424;SDS011;17139;52.140;11.636;2022-12-07T09:24:43;2.55;;;2.45;;
9424;SDS011;17139;52.140;11.636;2022-12-07T09:27:10;1.40;;;1.40;;
9424;SDS011;17139;52.140;11.636;2022-12-07T09:29:38;1.70;;;1.70;;
9424;SDS011;17139;52.140;11.636;2022-12-07T09:32:05;2.00;;;1.90;;
9424;SDS011;17139;52.140;11.636;2022-12-07T09:34:32;1.77;;;1.67;;
9424;SDS011;17139;52.140;11.636;2022-12-07T09:37:00;2.00;;;1.90;;
9424;SDS011;17139;52.140;11.636;2022-12-07T09:39:28;1.57;;;1.57;;
9424;SDS011;17139;52.140;11.636;2022-12-07T09:41:56;1.27;;;1.27;;
9424;SDS011;17139;52.140;11.636;2022-12-07T09:44:25;1.80;;;1.70;;
9424;SDS011;17139;52.140;11.636;2022-12-07T09:46:53;1.13;;;1.13;;
9424;SDS011;17139;52.140;11.636;2022-12-07T09:49:22;2.33;;;2.23;;
9424;SDS011;17139;52.140;11.636;2022-12-07T09:51:59;2.90;;;2.70;;
9424;SDS011;17139;52.140;11.636;2022-12-07T09:54:29;2.37;;;2.27;;
9424;SDS011;17139;52.140;11.636;2022-12-07T09:56:58;1.60;;;1.60;;
9424;SDS011;17139;52.140;11.636;2022-12-07T09:59:25;1.37;;;1.37;;
9424;SDS011;17139;52.140;11.636;2022-12-07T10:01:53;1.63;;;1.63;;
9424;SDS011;17139;52.140;11.636;2022-12-07T10:04:20;4.73;;;2.03;;
9424;SDS011;17139;52.140;11.636;2022-12-07T10:06:50;1.33;;;1.27;;
9424;SDS011;17139;52.140;11.636;2022-12-07T10:09:18;1.63;;;1.60;;
9424;SDS011;17139;52.140;11.636;2022-12-07T10:12:04;1.67;;;1.63;;
9424;SDS011;17139;52.140;11.636;2022-12-07T10:14:34;2.60;;;2.42;;
9424;SDS011;17139;52.140;11.636;2022-12-07T10:17:02;3.27;;;1.73;;
9424;SDS011;17139;52.140;11.636;2022-12-07T10:20:08;1.40;;;1.40;;
9424;SDS011;17139;52.140;11.636;2022-12-07T10:22:56;5.10;;;2.58;;
9424;SDS011;17139;52.140;11.636;2022-12-07T10:25:26;1.87;;;1.77;;
9424;SDS011;17139;52.140;11.636;2022-12-07T10:27:58;1.40;;;1.40;;
9424;SDS011;17139;52.140;11.636;2022-12-07T10:30:27;5.10;;;2.00;;
9424;SDS011;17139;52.140;11.636;2022-12-07T10:32:54;1.87;;;1.77;;
9424;SDS011;17139;52.140;11.636;2022-12-07T10:35:23;1.97;;;1.43;;
9424;SDS011;17139;52.140;11.636;2022-12-07T10:37:53;2.70;;;1.53;;
9424;SDS011;17139;52.140;11.636;2022-12-07T10:40:30;1.13;;;1.13;;
9424;SDS011;17139;52.140;11.636;2022-12-07T10:43:04;1.00;;;1.00;;
9424;SDS011;17139;52.140;11.636;2022-12-07T10:45:43;1.52;;;1.42;;
9424;SDS011;17139;52.140;11.636;2022-12-07T10:48:48;2.38;;;2.17;;
9424;SDS011;17139;52.140;11.636;2022-12-07T10:51:22;5.50;;;1.87;;
9424;SDS011;17139;52.140;11.636;2022-12-07T10:53:57;1.20;;;1.20;;
9424;SDS011;17139;52.140;11.636;2022-12-07T11:02:29;2.40;;;2.20;;
9424;SDS011;17139;52.140;11.636;2022-12-07T11:05:06;1.13;;;1.13;;
9424;SDS011;17139;52.140;11.636;2022-12-07T11:07:44;1.83;;;1.73;;
9424;SDS011;17139;52.140;11.636;2022-12-07T11:10:22;2.25;;;2.05;;
9424;SDS011;17139;52.140;11.636;2022-12-07T11:13:05;1.30;;;1.30;;
9424;SDS011;17139;52.140;11.636;2022-12-07T11:15:51;1.13;;;1.13;;
9424;SDS011;17139;52.140;11.636;2022-12-07T11:18:28;2.10;;;1.97;;
9424;SDS011;17139;52.140;11.636;2022-12-07T11:21:05;1.53;;;1.33;;
9424;SDS011;17139;52.140;11.636;2022-12-07T11:23:41;2.10;;;2.00;;
9424;SDS011;17139;52.140;11.636;2022-12-07T11:26:17;1.70;;;1.70;;
9424;SDS011;17139;52.140;11.636;2022-12-07T11:28:57;1.90;;;1.77;;
9424;SDS011;17139;52.140;11.636;2022-12-07T11:31:34;0.50;;;0.50;;
9424;SDS011;17139;52.140;11.636;2022-12-07T11:34:14;1.67;;;1.50;;
9424;SDS011;17139;52.140;11.636;2022-12-07T11:36:49;1.43;;;1.37;;
9424;SDS011;17139;52.140;11.636;2022-12-07T11:39:22;2.10;;;1.63;;
9424;SDS011;17139;52.140;11.636;2022-12-07T11:41:57;3.87;;;1.57;;
9424;SDS011;17139;52.140;11.636;2022-12-07T11:44:31;3.08;;;2.35;;
9424;SDS011;17139;52.140;11.636;2022-12-07T11:47:07;2.30;;;2.10;;
9424;SDS011;17139;52.140;11.636;2022-12-07T11:49:40;3.03;;;2.23;;
9424;SDS011;17139;52.140;11.636;2022-12-07T11:52:13;1.20;;;1.20;;
9424;SDS011;17139;52.140;11.636;2022-12-07T11:54:46;0.73;;;0.73;;
9424;SDS011;17139;52.140;11.636;2022-12-07T11:57:18;0.70;;;0.70;;
9424;SDS011;17139;52.140;11.636;2022-12-07T11:59:52;0.80;;;0.80;;
9424;SDS011;17139;52.140;11.636;2022-12-07T12:02:26;1.00;;;0.77;;
9424;SDS011;17139;52.140;11.636;2022-12-07T12:04:58;2.00;;;1.40;;
9424;SDS011;17139;52.140;11.636;2022-12-07T12:07:38;2.80;;;1.40;;
9424;SDS011;17139;52.140;11.636;2022-12-07T12:10:13;1.43;;;1.10;;
9424;SDS011;17139;52.140;11.636;2022-12-07T12:15:42;4.93;;;1.20;;
9424;SDS011;17139;52.140;11.636;2022-12-07T12:18:30;2.83;;;1.00;;
9424;SDS011;17139;52.140;11.636;2022-12-07T12:21:08;1.33;;;0.70;;
9424;SDS011;17139;52.140;11.636;2022-12-07T12:23:40;1.00;;;1.00;;
9424;SDS011;17139;52.140;11.636;2022-12-07T12:26:14;2.90;;;1.20;;
9424;SDS011;17139;52.140;11.636;2022-12-07T12:28:49;1.65;;;1.40;;
9424;SDS011;17139;52.140;11.636;2022-12-07T12:31:30;0.70;;;0.70;;
9424;SDS011;17139;52.140;11.636;2022-12-07T12:34:03;0.60;;;0.60;;
9424;SDS011;17139;52.140;11.636;2022-12-07T12:36:55;0.90;;;0.90;;
9424;SDS011;17139;52.140;11.636;2022-12-07T12:39:22;2.00;;;0.97;;
9424;SDS011;17139;52.140;11.636;2022-12-07T12:41:51;1.10;;;1.10;;
9424;SDS011;17139;52.140;11.636;2022-12-07T12:44:40;4.50;;;1.53;;
9424;SDS011;17139;52.140;11.636;2022-12-07T12:50:31;2.10;;;1.13;;
9424;SDS011;17139;52.140;11.636;2022-12-07T12:53:03;2.30;;;0.83;;
9424;SDS011;17139;52.140;11.636;2022-12-07T12:58:43;1.80;;;1.10;;
9424;SDS011;17139;52.140;11.636;2022-12-07T13:04:26;1.10;;;1.00;;
9424;SDS011;17139;52.140;11.636;2022-12-07T13:06:58;0.60;;;0.60;;
9424;SDS011;17139;52.140;11.636;2022-12-07T13:09:26;2.93;;;1.13;;
9424;SDS011;17139;52.140;11.636;2022-12-07T13:12:10;0.60;;;0.60;;
9424;SDS011;17139;52.140;11.636;2022-12-07T13:14:41;2.33;;;0.95;;
9424;SDS011;17139;52.140;11.636;2022-12-07T13:23:19;0.40;;;0.40;;
9424;SDS011;17139;52.140;11.636;2022-12-07T13:25:57;0.30;;;0.30;;
9424;SDS011;17139;52.140;11.636;2022-12-07T13:28:32;0.40;;;0.40;;
9424;SDS011;17139;52.140;11.636;2022-12-07T13:31:14;1.27;;;1.27;;
9424;SDS011;17139;52.140;11.636;2022-12-07T13:33:49;0.80;;;0.60;;
9424;SDS011;17139;52.140;11.636;2022-12-07T13:36:18;0.50;;;0.50;;
9424;SDS011;17139;52.140;11.636;2022-12-07T13:38:50;2.30;;;0.60;;
9424;SDS011;17139;52.140;11.636;2022-12-07T13:41:19;1.00;;;1.00;;
9424;SDS011;17139;52.140;11.636;2022-12-07T13:43:52;3.90;;;1.08;;
9424;SDS011;17139;52.140;11.636;2022-12-07T13:46:26;4.13;;;1.07;;
9424;SDS011;17139;52.140;11.636;2022-12-07T13:49:02;0.80;;;0.80;;
9424;SDS011;17139;52.140;11.636;2022-12-07T13:51:40;0.93;;;0.93;;
9424;SDS011;17139;52.140;11.636;2022-12-07T13:54:10;1.07;;;1.07;;
9424;SDS011;17139;52.140;11.636;2022-12-07T13:56:39;2.10;;;1.07;;
9424;SDS011;17139;52.140;11.636;2022-12-07T13:59:10;4.93;;;1.43;;
9424;SDS011;17139;52.140;11.636;2022-12-07T14:01:41;1.10;;;1.10;;
9424;SDS011;17139;52.140;11.636;2022-12-07T14:06:57;1.80;;;1.70;;
9424;SDS011;17139;52.140;11.636;2022-12-07T14:09:27;3.27;;;1.40;;
9424;SDS011;17139;52.140;11.636;2022-12-07T14:11:55;1.67;;;1.57;;
9424;SDS011;17139;52.140;11.636;2022-12-07T14:14:25;4.63;;;1.77;;
9424;SDS011;17139;52.140;11.636;2022-12-07T14:16:58;1.00;;;1.00;;
9424;SDS011;17139;52.140;11.636;2022-12-07T14:19:50;1.17;;;1.10;;
9424;SDS011;17139;52.140;11.636;2022-12-07T14:22:29;1.10;;;1.10;;
9424;SDS011;17139;52.140;11.636;2022-12-07T14:25:01;1.77;;;1.67;;
9424;SDS011;17139;52.140;11.636;2022-12-07T14:28:09;1.92;;;1.83;;
9424;SDS011;17139;52.140;11.636;2022-12-07T14:30:50;3.95;;;2.65;;
9424;SDS011;17139;52.140;11.636;2022-12-07T14:33:18;2.10;;;2.00;;
9424;SDS011;17139;52.140;11.636;2022-12-07T14:35:46;2.63;;;2.30;;
9424;SDS011;17139;52.140;11.636;2022-12-07T14:38:13;0.97;;;0.97;;
9424;SDS011;17139;52.140;11.636;2022-12-07T14:40:41;1.17;;;1.17;;
9424;SDS011;17139;52.140;11.636;2022-12-07T14:43:09;2.77;;;1.40;;
9424;SDS011;17139;52.140;11.636;2022-12-07T14:45:38;1.10;;;1.10;;
9424;SDS011;17139;52.140;11.636;2022-12-07T14:48:05;1.80;;;1.70;;
9424;SDS011;17139;52.140;11.636;2022-12-07T14:50:37;2.15;;;2.05;;
9424;SDS011;17139;52.140;11.636;2022-12-07T14:53:09;2.67;;;2.47;;
9424;SDS011;17139;52.140;11.636;2022-12-07T14:55:39;2.10;;;1.50;;
9424;SDS011;17139;52.140;11.636;2022-12-07T14:58:07;1.03;;;1.00;;
9424;SDS011;17139;52.140;11.636;2022-12-07T15:00:39;2.50;;;1.43;;
9424;SDS011;17139;52.140;11.636;2022-12-07T15:03:07;1.50;;;1.40;;
9424;SDS011;17139;52.140;11.636;2022-12-07T15:05:34;4.00;;;1.40;;
9424;SDS011;17139;52.140;11.636;2022-12-07T15:08:02;1.23;;;0.87;;
9424;SDS011;17139;52.140;11.636;2022-12-07T15:10:30;5.07;;;1.50;;
9424;SDS011;17139;52.140;11.636;2022-12-07T15:12:59;2.47;;;1.40;;
9424;SDS011;17139;52.140;11.636;2022-12-07T15:15:43;0.80;;;0.80;;
9424;SDS011;17139;52.140;11.636;2022-12-07T15:18:10;1.00;;;1.00;;
9424;SDS011;17139;52.140;11.636;2022-12-07T15:20:37;2.10;;;1.07;;
9424;SDS011;17139;52.140;11.636;2022-12-07T15:23:04;1.50;;;1.40;;
9424;SDS011;17139;52.140;11.636;2022-12-07T15:25:31;0.90;;;0.90;;
9424;SDS011;17139;52.140;11.636;2022-12-07T15:27:58;0.90;;;0.90;;
9424;SDS011;17139;52.140;11.636;2022-12-07T15:30:26;1.07;;;1.07;;
9424;SDS011;17139;52.140;11.636;2022-12-07T15:32:54;1.63;;;1.60;;
9424;SDS011;17139;52.140;11.636;2022-12-07T15:35:21;1.27;;;1.27;;
9424;SDS011;17139;52.140;11.636;2022-12-07T15:37:48;1.60;;;1.60;;
9424;SDS011;17139;52.140;11.636;2022-12-07T15:40:15;1.57;;;1.53;;